Time;durP1;ratioP1;P1;durP2;ratioP2;P2;SDS_P1;SDS_P2;PMS_P1;PMS_P2;Temp;Humidity;BMP_temperature;BMP_pressure;BME280_temperature;BME280_humidity;BME280_pressure;Samples;Min_cycle;Max_cycle;Signal;HPM_P1;HPM_P2
2022/12/07 00:00:43;;;;;;;11.63;8.63;;;7.50;50.20;;;;;;4993665;28;20187;-52
2022/12/07 00:03:09;;;;;;;13.33;8.73;;;7.50;49.90;;;;;;4993548;28;20179;-52
2022/12/07 00:05:34;;;;;;;16.33;8.30;;;7.40;50.00;;;;;;4993636;28;20209;-51
2022/12/07 00:08:00;;;;;;;13.03;8.90;;;7.40;50.10;;;;;;4993601;28;20194;-51
2022/12/07 00:10:26;;;;;;;10.40;7.53;;;7.50;50.20;;;;;;4993503;28;20218;-52
2022/12/07 00:12:52;;;;;;;11.10;8.17;;;7.50;50.20;;;;;;4993226;28;20202;-52
2022/12/07 00:15:17;;;;;;;10.47;8.23;;;7.50;50.10;;;;;;4993478;28;20171;-52
2022/12/07 00:17:43;;;;;;;9.40;6.57;;;7.50;49.90;;;;;;4993341;28;20167;-51
2022/12/07 00:20:09;;;;;;;10.77;7.13;;;7.40;49.70;;;;;;4993300;28;20534;-52
2022/12/07 00:22:35;;;;;;;13.00;7.97;;;7.40;49.90;;;;;;4993004;28;20266;-51
2022/12/07 00:25:00;;;;;;;10.57;8.33;;;7.40;49.40;;;;;;4992096;28;20262;-52
2022/12/07 00:27:27;;;;;;;14.37;8.80;;;7.40;49.70;;;;;;4993026;28;20278;-52
2022/12/07 00:29:53;;;;;;;12.88;8.57;;;7.40;49.60;;;;;;4993138;28;20270;-51
2022/12/07 00:32:18;;;;;;;11.17;8.30;;;7.30;49.80;;;;;;4992709;28;20715;-52
2022/12/07 00:34:44;;;;;;;12.00;8.07;;;7.30;49.70;;;;;;4993301;28;20251;-52
2022/12/07 00:37:10;;;;;;;10.37;7.70;;;7.30;49.60;;;;;;4993023;28;20593;-52
2022/12/07 00:39:35;;;;;;;13.70;8.00;;;7.30;49.80;;;;;;4993222;28;20688;-51
2022/12/07 00:42:01;;;;;;;13.50;8.77;;;7.30;49.70;;;;;;4992664;28;20179;-51
2022/12/07 00:44:27;;;;;;;13.30;10.27;;;7.30;49.50;;;;;;4992929;28;20174;-51
2022/12/07 00:46:52;;;;;;;14.67;9.17;;;7.30;49.70;;;;;;4992764;28;20199;-52
2022/12/07 00:49:18;;;;;;;14.30;8.97;;;7.30;49.60;;;;;;4992855;28;20173;-52
2022/12/07 00:51:44;;;;;;;14.20;9.03;;;7.40;49.60;;;;;;4992808;28;20641;-51
2022/12/07 00:54:10;;;;;;;12.30;8.27;;;7.40;49.20;;;;;;4992631;28;20576;-52
2022/12/07 00:56:35;;;;;;;11.87;7.60;;;7.40;49.20;;;;;;4992556;28;20210;-51
2022/12/07 00:59:03;;;;;;;16.27;9.50;;;7.40;49.20;;;;;;4993059;28;20697;-52
2022/12/07 01:01:32;;;;;;;13.88;8.75;;;7.40;49.20;;;;;;4992968;28;20229;-52
2022/12/07 01:03:58;;;;;;;11.65;7.47;;;7.40;49.10;;;;;;4992524;28;20248;-51
2022/12/07 01:06:25;;;;;;;14.60;8.95;;;7.40;49.10;;;;;;4992571;28;20204;-51
2022/12/07 01:08:51;;;;;;;17.23;7.85;;;7.40;49.30;;;;;;4992669;28;20637;-52
2022/12/07 01:11:20;;;;;;;10.13;7.88;;;7.40;49.40;;;;;;4992636;28;20649;-52
2022/12/07 01:13:46;;;;;;;18.92;8.65;;;7.50;49.50;;;;;;4992378;28;20226;-52
2022/12/07 01:16:15;;;;;;;11.93;7.93;;;7.50;49.40;;;;;;4992530;28;20673;-51
2022/12/07 01:18:41;;;;;;;13.55;8.80;;;7.60;49.30;;;;;;4992504;28;20205;-52
2022/12/07 01:21:11;;;;;;;15.38;9.95;;;7.60;49.10;;;;;;4992854;28;20525;-52
2022/12/07 01:23:37;;;;;;;11.80;8.40;;;7.60;49.10;;;;;;4992285;28;20645;-52
2022/12/07 01:26:07;;;;;;;16.70;9.07;;;7.60;49.10;;;;;;4992611;28;20209;-53
2022/12/07 01:28:33;;;;;;;14.88;9.05;;;7.60;49.10;;;;;;4992451;28;20403;-52
2022/12/07 01:31:02;;;;;;;20.33;9.73;;;7.60;48.30;;;;;;4992503;28;20685;-52
2022/12/07 01:33:30;;;;;;;14.15;9.38;;;7.60;48.60;;;;;;4992237;28;20179;-52
2022/12/07 01:36:05;;;;;;;17.63;11.15;;;7.50;48.60;;;;;;4992347;28;20584;-51
2022/12/07 01:38:32;;;;;;;12.75;8.30;;;7.50;48.90;;;;;;4992470;28;20278;-51
2022/12/07 01:40:59;;;;;;;15.60;9.38;;;7.50;48.90;;;;;;4992505;28;20659;-52
2022/12/07 01:43:28;;;;;;;14.13;9.05;;;7.50;48.80;;;;;;4994365;28;20229;-52
2022/12/07 01:45:54;;;;;;;15.82;9.35;;;7.50;48.70;;;;;;4996078;28;20207;-52
2022/12/07 01:48:33;;;;;;;15.73;9.35;;;7.50;48.80;;;;;;4996137;28;20175;-51
2022/12/07 01:51:05;;;;;;;16.40;9.10;;;7.50;48.80;;;;;;4996140;28;20225;-52
2022/12/07 01:53:35;;;;;;;16.08;9.57;;;7.50;48.80;;;;;;4996094;28;20180;-52
2022/12/07 01:56:01;;;;;;;15.80;9.88;;;7.50;48.80;;;;;;4995937;28;20290;-51
2022/12/07 01:58:28;;;;;;;20.20;9.43;;;7.60;48.80;;;;;;4995939;28;20258;-51
2022/12/07 02:00:53;;;;;;;14.00;9.68;;;7.50;48.80;;;;;;4996151;28;20414;-52
2022/12/07 02:03:22;;;;;;;11.50;8.00;;;7.60;48.40;;;;;;4995544;28;20641;-51
2022/12/07 02:05:49;;;;;;;19.60;10.27;;;7.50;48.70;;;;;;4995930;28;20211;-52
2022/12/07 02:08:16;;;;;;;15.15;8.38;;;7.60;48.80;;;;;;4995777;28;20168;-51
2022/12/07 02:10:42;;;;;;;13.15;7.72;;;7.50;48.30;;;;;;4995753;28;20218;-52
2022/12/07 02:13:14;;;;;;;12.30;8.17;;;7.40;48.60;;;;;;4995551;28;20199;-52
2022/12/07 02:16:02;;;;;;;14.07;8.10;;;7.40;48.60;;;;;;4995662;28;20426;-52
2022/12/07 02:18:51;;;;;;;11.27;6.65;;;7.40;48.60;;;;;;4995734;28;20180;-52
2022/12/07 02:21:16;;;;;;;10.48;6.72;;;7.20;48.30;;;;;;4985365;28;20183;-52
2022/12/07 02:23:59;;;;;;;10.60;7.40;;;7.10;48.40;;;;;;4995293;28;20202;-52
2022/12/07 02:27:00;;;;;;;16.80;8.55;;;7.00;48.70;;;;;;4995351;28;20665;-52
2022/12/07 02:29:40;;;;;;;10.32;6.97;;;7.00;48.60;;;;;;4995344;28;20176;-52
2022/12/07 02:32:36;;;;;;;10.30;7.72;;;7.00;48.60;;;;;;4995109;28;20151;-52
2022/12/07 02:35:09;;;;;;;10.32;6.75;;;7.00;48.50;;;;;;4995414;28;20163;-51
2022/12/07 02:38:02;;;;;;;9.18;6.78;;;7.00;48.40;;;;;;4995337;28;20233;-52
2022/12/07 02:40:34;;;;;;;9.77;6.45;;;7.00;48.20;;;;;;4995184;28;20153;-52
2022/12/07 02:43:24;;;;;;;7.55;5.80;;;6.90;48.30;;;;;;4994928;28;20214;-51
2022/12/07 02:45:53;;;;;;;9.75;7.10;;;6.90;48.20;;;;;;4995171;28;20214;-51
2022/12/07 02:48:20;;;;;;;10.98;8.20;;;6.90;48.20;;;;;;4995091;28;20203;-52
2022/12/07 02:50:51;;;;;;;9.38;6.68;;;6.80;48.10;;;;;;4994989;28;20593;-52
2022/12/07 02:53:33;;;;;;;12.07;6.50;;;6.90;48.10;;;;;;4994588;28;20167;-52
2022/12/07 02:56:07;;;;;;;7.50;5.95;;;6.90;48.20;;;;;;4994771;28;20892;-52
2022/12/07 02:59:09;;;;;;;10.88;6.93;;;6.90;48.10;;;;;;4995007;28;20190;-51
2022/12/07 03:01:46;;;;;;;12.07;7.70;;;6.90;48.10;;;;;;4994724;28;20190;-52
2022/12/07 03:04:35;;;;;;;6.72;5.72;;;6.90;48.10;;;;;;4994861;28;20189;-52
2022/12/07 03:07:11;;;;;;;10.20;6.80;;;7.00;47.90;;;;;;4983987;28;20246;-52
2022/12/07 03:09:44;;;;;;;8.10;5.88;;;7.00;47.90;;;;;;4994797;28;20172;-51
2022/12/07 03:12:16;;;;;;;8.82;6.20;;;7.00;47.80;;;;;;4994652;28;20202;-51
2022/12/07 03:14:49;;;;;;;10.60;7.20;;;7.00;47.80;;;;;;4993381;28;20230;-51
2022/12/07 03:17:25;;;;;;;9.32;6.10;;;7.00;47.90;;;;;;4994454;28;20618;-52
2022/12/07 03:19:54;;;;;;;10.13;7.20;;;7.00;47.90;;;;;;4994526;28;20205;-51
2022/12/07 03:22:20;;;;;;;10.73;6.60;;;7.00;47.80;;;;;;4994163;28;20218;-52
2022/12/07 03:24:52;;;;;;;11.50;5.85;;;7.00;47.70;;;;;;4994395;28;20175;-51
2022/12/07 03:27:52;;;;;;;8.85;5.85;;;6.90;47.60;;;;;;4994260;28;20231;-52
2022/12/07 03:30:24;;;;;;;9.88;5.55;;;6.90;47.50;;;;;;4990049;28;20230;-52
2022/12/07 03:33:13;;;;;;;9.73;6.50;;;6.90;47.50;;;;;;4993938;28;20171;-51
2022/12/07 03:35:48;;;;;;;8.18;5.65;;;6.80;47.30;;;;;;4994145;28;20245;-51
2022/12/07 03:38:47;;;;;;;9.73;5.38;;;6.70;47.40;;;;;;4994488;28;20171;-52
2022/12/07 03:41:30;;;;;;;7.43;5.85;;;6.60;47.30;;;;;;4989227;28;20610;-52
2022/12/07 03:43:56;;;;;;;9.02;6.55;;;6.60;47.40;;;;;;4994006;28;20175;-52
2022/12/07 03:46:34;;;;;;;9.20;6.28;;;6.50;47.60;;;;;;4993753;28;20211;-51
2022/12/07 03:49:18;;;;;;;9.45;6.25;;;6.50;47.60;;;;;;4994022;28;20238;-52
2022/12/07 03:52:08;;;;;;;8.45;6.50;;;6.50;47.70;;;;;;4994153;28;20258;-52
2022/12/07 03:54:47;;;;;;;10.02;7.53;;;6.50;47.60;;;;;;4993810;28;20185;-52
2022/12/07 03:57:13;;;;;;;9.75;5.95;;;6.50;47.60;;;;;;4993640;28;20294;-51
2022/12/07 03:59:41;;;;;;;9.90;6.45;;;6.40;47.60;;;;;;4993586;28;20553;-51
2022/12/07 04:02:07;;;;;;;9.50;7.13;;;6.40;47.70;;;;;;4993689;28;20190;-52
2022/12/07 04:04:34;;;;;;;10.75;7.82;;;6.40;47.60;;;;;;4993892;28;20262;-51
2022/12/07 04:07:00;;;;;;;9.55;7.72;;;6.40;47.60;;;;;;4992962;28;20211;-51
2022/12/07 04:09:27;;;;;;;17.00;6.25;;;6.40;47.70;;;;;;4993551;28;20167;-51
2022/12/07 04:11:52;;;;;;;13.55;7.70;;;6.40;47.70;;;;;;4993607;28;20258;-52
2022/12/07 04:14:18;;;;;;;13.00;6.70;;;6.40;47.70;;;;;;4993318;28;20620;-52
2022/12/07 04:16:52;;;;;;;9.07;6.53;;;6.40;47.70;;;;;;4993338;28;20201;-52
2022/12/07 04:19:21;;;;;;;12.75;8.57;;;6.40;47.60;;;;;;4993347;28;20246;-51
2022/12/07 04:21:47;;;;;;;13.73;8.77;;;6.30;47.60;;;;;;4993280;28;20182;-51
2022/12/07 04:24:14;;;;;;;10.73;7.38;;;6.30;47.50;;;;;;4993189;28;20226;-50
2022/12/07 04:26:40;;;;;;;12.70;8.82;;;6.30;47.40;;;;;;4993060;28;20204;-52
2022/12/07 04:29:06;;;;;;;11.27;8.10;;;6.30;47.30;;;;;;4993042;28;20530;-51
2022/12/07 04:31:32;;;;;;;14.60;8.10;;;6.20;47.20;;;;;;4993156;28;20164;-51
2022/12/07 04:33:58;;;;;;;14.50;8.80;;;6.20;47.40;;;;;;4992937;28;20406;-51
2022/12/07 04:36:23;;;;;;;18.20;9.57;;;6.20;47.30;;;;;;4992927;28;20631;-52
2022/12/07 04:38:49;;;;;;;12.53;8.93;;;6.20;47.50;;;;;;4993266;28;20171;-51
2022/12/07 04:41:15;;;;;;;15.53;10.10;;;6.20;47.50;;;;;;4992952;28;20911;-51
2022/12/07 04:43:41;;;;;;;16.53;9.90;;;6.20;47.50;;;;;;4992590;28;20202;-52
2022/12/07 04:46:06;;;;;;;12.80;9.70;;;6.30;47.40;;;;;;4992778;28;20198;-52
2022/12/07 04:48:32;;;;;;;14.43;9.33;;;6.20;47.40;;;;;;4993031;28;20167;-52
2022/12/07 04:50:58;;;;;;;14.03;9.13;;;6.30;47.40;;;;;;4992971;28;20403;-51
2022/12/07 04:53:24;;;;;;;15.73;9.10;;;6.30;47.30;;;;;;4992906;28;20561;-52
2022/12/07 04:55:49;;;;;;;15.30;10.13;;;6.30;47.00;;;;;;4992614;28;20640;-52
2022/12/07 04:58:15;;;;;;;11.50;8.50;;;6.20;46.90;;;;;;4992612;28;20171;-52
2022/12/07 05:00:41;;;;;;;13.87;9.23;;;6.20;46.80;;;;;;4992925;28;20175;-52
2022/12/07 05:03:07;;;;;;;15.40;9.30;;;6.20;46.80;;;;;;4992597;28;20903;-52
2022/12/07 05:05:33;;;;;;;13.40;9.13;;;6.20;46.70;;;;;;4992672;28;20449;-51
2022/12/07 05:07:58;;;;;;;11.52;8.13;;;6.10;46.80;;;;;;4992563;28;20711;-52
2022/12/07 05:10:24;;;;;;;12.03;8.80;;;6.10;46.90;;;;;;4992606;28;20183;-50
2022/12/07 05:12:50;;;;;;;13.73;8.30;;;6.00;46.80;;;;;;4992462;28;20190;-50
2022/12/07 05:15:16;;;;;;;14.00;8.33;;;6.00;46.80;;;;;;4992726;28;20982;-51
2022/12/07 05:17:42;;;;;;;15.43;8.00;;;6.00;46.80;;;;;;4993658;28;20175;-52
2022/12/07 05:20:08;;;;;;;11.52;8.65;;;6.00;46.70;;;;;;4996663;28;20402;-52
2022/12/07 05:22:35;;;;;;;12.55;7.40;;;5.90;46.80;;;;;;4996389;28;20628;-50
2022/12/07 05:25:01;;;;;;;13.07;7.90;;;5.90;46.80;;;;;;4996864;28;20240;-51
2022/12/07 05:27:27;;;;;;;11.30;7.18;;;5.90;46.70;;;;;;4996205;28;20707;-51
2022/12/07 05:29:53;;;;;;;14.30;9.07;;;5.90;46.80;;;;;;4996526;28;20171;-50
2022/12/07 05:32:18;;;;;;;10.80;8.30;;;5.90;47.00;;;;;;4996259;28;20171;-52
2022/12/07 05:34:44;;;;;;;12.90;8.50;;;5.90;47.10;;;;;;4996405;28;20178;-52
2022/12/07 05:37:10;;;;;;;15.77;7.60;;;5.90;47.20;;;;;;4996235;28;20257;-52
2022/12/07 05:39:37;;;;;;;9.80;6.70;;;5.90;47.40;;;;;;4996247;28;20214;-51
2022/12/07 05:42:12;;;;;;;12.25;8.38;;;5.90;47.40;;;;;;4995909;28;20188;-51
2022/12/07 05:44:42;;;;;;;12.85;8.00;;;6.00;47.40;;;;;;4996339;28;20179;-52
2022/12/07 05:47:08;;;;;;;15.18;7.07;;;6.00;47.30;;;;;;4996313;28;20199;-52
2022/12/07 05:49:34;;;;;;;12.50;8.20;;;6.10;47.40;;;;;;4996084;28;20180;-51
2022/12/07 05:52:00;;;;;;;13.00;7.53;;;6.10;47.20;;;;;;4995852;28;20226;-51
2022/12/07 05:54:26;;;;;;;11.80;8.00;;;6.20;47.30;;;;;;4995963;28;20243;-51
2022/12/07 05:56:52;;;;;;;14.18;7.45;;;6.20;47.30;;;;;;4995761;28;20454;-52
2022/12/07 05:59:24;;;;;;;9.93;7.23;;;6.20;47.30;;;;;;4995936;28;20176;-52
2022/12/07 06:01:50;;;;;;;14.40;8.00;;;6.20;47.30;;;;;;4996012;28;20391;-51
2022/12/07 06:04:17;;;;;;;10.32;6.93;;;6.20;47.20;;;;;;4995769;28;20179;-51
2022/12/07 06:06:42;;;;;;;10.80;6.93;;;6.30;47.40;;;;;;4995665;28;20219;-52
2022/12/07 06:09:08;;;;;;;11.07;7.57;;;6.30;47.40;;;;;;4995873;28;20571;-52
2022/12/07 06:14:18;;;;;;;9.75;6.45;;;6.40;47.40;;;;;;4995870;28;20222;-51
2022/12/07 06:16:44;;;;;;;11.70;7.63;;;6.40;47.40;;;;;;4995558;28;20210;-50
2022/12/07 06:19:10;;;;;;;11.47;8.83;;;6.40;47.40;;;;;;4995628;28;20410;-52
2022/12/07 06:21:35;;;;;;;8.10;6.33;;;6.50;47.50;;;;;;4995399;28;20558;-50
2022/12/07 06:24:01;;;;;;;11.67;7.13;;;6.50;47.40;;;;;;4995238;28;20286;-51
2022/12/07 06:26:27;;;;;;;11.27;6.30;;;6.50;47.40;;;;;;4995475;28;20294;-51
2022/12/07 06:28:53;;;;;;;10.52;7.45;;;6.60;47.20;;;;;;4995190;28;20492;-52
2022/12/07 06:31:19;;;;;;;7.90;6.23;;;6.50;47.10;;;;;;4995421;28;20613;-51
2022/12/07 06:33:45;;;;;;;8.50;5.70;;;6.50;47.10;;;;;;4995223;28;20176;-52
2022/12/07 06:36:11;;;;;;;7.73;5.40;;;6.50;47.10;;;;;;4995071;28;20797;-52
2022/12/07 06:38:37;;;;;;;8.00;5.57;;;6.50;47.20;;;;;;4995437;28;20892;-51
2022/12/07 06:41:03;;;;;;;6.23;4.23;;;6.50;46.80;;;;;;4995181;28;20191;-52
2022/12/07 06:43:29;;;;;;;6.77;4.60;;;6.40;47.10;;;;;;4993606;28;20429;-51
2022/12/07 06:45:55;;;;;;;7.28;5.55;;;6.40;47.30;;;;;;4994903;28;20499;-51
2022/12/07 06:48:21;;;;;;;6.07;4.50;;;6.50;47.90;;;;;;4995336;28;20266;-52
2022/12/07 06:50:47;;;;;;;5.80;4.10;;;6.50;47.70;;;;;;4994878;28;20675;-51
2022/12/07 06:53:13;;;;;;;6.50;4.35;;;6.50;47.70;;;;;;4994678;28;20203;-51
2022/12/07 06:55:39;;;;;;;5.70;4.97;;;6.60;47.70;;;;;;4994531;28;20265;-51
2022/12/07 06:58:05;;;;;;;6.13;4.10;;;6.70;47.80;;;;;;4993605;28;20648;-52
2022/12/07 07:00:31;;;;;;;8.10;5.27;;;6.70;47.80;;;;;;4994765;28;20184;-52
2022/12/07 07:02:57;;;;;;;7.50;4.50;;;6.70;48.00;;;;;;4994483;28;20417;-51
2022/12/07 07:05:22;;;;;;;7.90;4.97;;;6.70;48.30;;;;;;4994873;28;20191;-51
2022/12/07 07:07:49;;;;;;;4.80;3.57;;;6.60;48.80;;;;;;4994854;28;20303;-51
2022/12/07 07:10:15;;;;;;;6.93;4.50;;;6.60;49.10;;;;;;4994574;28;20959;-52
2022/12/07 07:12:41;;;;;;;7.37;5.27;;;6.50;49.60;;;;;;4994241;28;20269;-51
2022/12/07 07:15:07;;;;;;;7.73;4.53;;;6.50;49.70;;;;;;4994586;28;20179;-52
2022/12/07 07:17:33;;;;;;;5.57;4.88;;;6.60;49.50;;;;;;4994702;28;20179;-50
2022/12/07 07:19:58;;;;;;;8.00;5.57;;;6.70;49.50;;;;;;4994410;28;20206;-52
2022/12/07 07:22:24;;;;;;;4.73;3.87;;;6.70;49.40;;;;;;4994389;28;20175;-51
2022/12/07 07:24:50;;;;;;;7.37;5.20;;;6.70;49.60;;;;;;4994380;28;20648;-52
2022/12/07 07:27:15;;;;;;;7.93;5.30;;;6.70;49.50;;;;;;4994469;28;20210;-51
2022/12/07 07:29:41;;;;;;;7.93;5.07;;;6.80;49.50;;;;;;4994350;28;20283;-51
2022/12/07 07:32:07;;;;;;;11.70;6.07;;;6.90;49.40;;;;;;4993950;28;20607;-54
2022/12/07 07:34:33;;;;;;;7.68;5.50;;;7.00;49.20;;;;;;4994073;28;20175;-52
2022/12/07 07:36:59;;;;;;;6.75;4.60;;;7.00;49.20;;;;;;4993987;28;20207;-51
2022/12/07 07:39:25;;;;;;;7.63;5.00;;;7.00;49.10;;;;;;4994054;28;20191;-50
2022/12/07 07:41:51;;;;;;;6.57;4.70;;;7.00;49.30;;;;;;4993463;28;20421;-52
2022/12/07 07:44:16;;;;;;;8.83;5.23;;;7.10;49.30;;;;;;4993979;28;20246;-52
2022/12/07 07:46:42;;;;;;;6.30;4.63;;;7.00;49.50;;;;;;4993754;28;20207;-51
2022/12/07 07:49:10;;;;;;;7.50;5.60;;;7.00;49.50;;;;;;4993812;28;20179;-51
2022/12/07 07:51:36;;;;;;;8.05;5.50;;;7.00;49.60;;;;;;4994089;28;20175;-51
2022/12/07 07:54:02;;;;;;;6.97;5.37;;;7.00;49.60;;;;;;4993801;28;20180;-52
2022/12/07 07:56:28;;;;;;;6.10;4.53;;;7.10;49.60;;;;;;4993590;28;20454;-53
2022/12/07 07:58:55;;;;;;;6.63;5.60;;;7.10;49.60;;;;;;4993603;28;20175;-50
2022/12/07 08:01:21;;;;;;;7.10;4.63;;;7.10;49.70;;;;;;4993604;28;20187;-51
2022/12/07 08:03:47;;;;;;;7.03;5.43;;;7.10;49.80;;;;;;4993361;28;20251;-52
2022/12/07 08:06:13;;;;;;;13.50;6.50;;;7.20;49.80;;;;;;4993764;28;20210;-52
2022/12/07 08:08:38;;;;;;;12.80;7.53;;;7.10;50.10;;;;;;4993542;28;20183;-52
2022/12/07 08:11:08;;;;;;;10.80;6.70;;;7.20;50.00;;;;;;4993661;28;20907;-52
2022/12/07 08:13:34;;;;;;;10.60;7.10;;;7.30;49.90;;;;;;4993230;28;20210;-51
2022/12/07 08:16:05;;;;;;;11.23;7.32;;;7.30;49.80;;;;;;4993560;28;20286;-51
2022/12/07 08:18:30;;;;;;;9.88;7.43;;;7.40;49.80;;;;;;4993581;28;20626;-51
2022/12/07 08:21:00;;;;;;;9.90;6.00;;;7.40;49.80;;;;;;4993295;28;20270;-51
2022/12/07 08:23:27;;;;;;;12.70;9.02;;;7.50;49.80;;;;;;4993332;28;20171;-51
2022/12/07 08:25:52;;;;;;;9.82;7.65;;;7.50;49.70;;;;;;4993132;28;20199;-52
2022/12/07 08:28:18;;;;;;;11.63;6.30;;;7.50;49.80;;;;;;4993348;28;20202;-51
2022/12/07 08:30:44;;;;;;;8.80;7.30;;;7.50;49.80;;;;;;4993003;28;20186;-52
2022/12/07 08:33:10;;;;;;;10.63;8.40;;;7.60;49.70;;;;;;4992873;28;20175;-52
2022/12/07 08:35:36;;;;;;;9.80;7.43;;;7.60;49.30;;;;;;4993141;28;20266;-52
2022/12/07 08:38:03;;;;;;;12.85;9.00;;;7.60;49.40;;;;;;4993070;28;20290;-51
2022/12/07 08:40:29;;;;;;;13.77;7.80;;;7.60;49.60;;;;;;4992984;28;20219;-51
2022/12/07 08:42:55;;;;;;;9.93;7.22;;;7.70;50.10;;;;;;4992657;28;20206;-51
2022/12/07 08:45:22;;;;;;;11.73;7.10;;;7.80;49.10;;;;;;4992781;28;20211;-52
2022/12/07 08:48:01;;;;;;;12.02;8.07;;;7.80;49.10;;;;;;4993035;28;20520;-52
2022/12/07 08:50:27;;;;;;;11.07;8.65;;;7.90;49.20;;;;;;4992837;28;20206;-51
2022/12/07 08:52:55;;;;;;;11.93;7.35;;;7.80;49.10;;;;;;4992545;28;20179;-50
2022/12/07 08:55:21;;;;;;;13.10;6.57;;;7.90;49.00;;;;;;4992731;28;20207;-51
2022/12/07 08:57:47;;;;;;;10.20;6.95;;;8.10;49.00;;;;;;4992949;28;20167;-51
2022/12/07 09:00:13;;;;;;;7.95;6.38;;;8.20;49.10;;;;;;4992633;28;20195;-52
2022/12/07 09:12:45;;;;;;;9.10;6.40;;;7.90;48.80;;;;;;4992254;28;20265;-51
2022/12/07 09:15:10;;;;;;;9.40;7.03;;;8.00;49.10;;;;;;4992690;28;20218;-50
2022/12/07 09:17:37;;;;;;;7.13;6.00;;;8.00;48.90;;;;;;4992482;28;20175;-51
2022/12/07 09:20:05;;;;;;;9.95;6.40;;;8.00;48.60;;;;;;4992497;28;20652;-50
2022/12/07 09:22:31;;;;;;;10.70;6.72;;;8.10;48.90;;;;;;4992162;28;20253;-50
2022/12/07 09:25:00;;;;;;;9.18;6.55;;;8.10;48.90;;;;;;4992537;28;20171;-51
2022/12/07 09:27:26;;;;;;;10.00;5.85;;;8.40;48.90;;;;;;4992317;28;20203;-53
2022/12/07 09:29:52;;;;;;;10.43;6.57;;;8.60;47.80;;;;;;4992324;28;20544;-51
2022/12/07 09:32:18;;;;;;;9.70;6.27;;;8.70;47.10;;;;;;4992489;28;20175;-51
2022/12/07 09:34:43;;;;;;;7.77;5.70;;;8.70;46.70;;;;;;4992575;28;20254;-52
2022/12/07 09:37:10;;;;;;;12.40;7.13;;;8.50;46.60;;;;;;4992432;28;20430;-51
2022/12/07 09:39:38;;;;;;;7.70;5.15;;;8.50;47.30;;;;;;4992475;28;20819;-51
2022/12/07 09:42:06;;;;;;;10.35;6.78;;;8.30;46.00;;;;;;4991957;28;20180;-51
2022/12/07 09:44:33;;;;;;;8.43;5.30;;;8.20;47.20;;;;;;4992489;28;20219;-52
2022/12/07 09:47:00;;;;;;;12.30;6.53;;;8.40;47.50;;;;;;4992172;28;20245;-51
2022/12/07 09:49:30;;;;;;;8.60;6.45;;;8.50;47.20;;;;;;4992177;28;20205;-52
2022/12/07 09:52:08;;;;;;;10.40;6.18;;;8.50;47.00;;;;;;4992028;28;20636;-51
2022/12/07 09:54:38;;;;;;;6.70;5.30;;;8.80;46.10;;;;;;4992194;28;20608;-51
2022/12/07 09:57:03;;;;;;;7.00;4.55;;;9.30;46.40;;;;;;4992008;28;20214;-52
2022/12/07 09:59:29;;;;;;;7.77;4.90;;;9.80;45.30;;;;;;4992443;28;20690;-51
2022/12/07 10:01:55;;;;;;;6.20;5.10;;;9.80;44.50;;;;;;4991987;28;20731;-51
2022/12/07 10:04:24;;;;;;;8.87;5.90;;;10.00;42.90;;;;;;4994092;28;20265;-51
2022/12/07 10:06:51;;;;;;;7.43;5.68;;;10.70;43.00;;;;;;4995626;28;20487;-51
2022/12/07 10:09:19;;;;;;;8.50;4.60;;;10.90;41.20;;;;;;4995954;28;20184;-51
2022/12/07 10:12:11;;;;;;;7.72;5.65;;;11.10;39.90;;;;;;4995863;28;20233;-51
2022/12/07 10:14:39;;;;;;;5.85;4.82;;;11.10;40.20;;;;;;4995689;28;20183;-50
2022/12/07 10:17:31;;;;;;;11.82;6.20;;;11.20;40.90;;;;;;4995550;28;20282;-52
2022/12/07 10:20:21;;;;;;;5.75;4.55;;;11.60;39.70;;;;;;4994285;28;20202;-52
2022/12/07 10:23:02;;;;;;;8.75;5.32;;;11.70;38.60;;;;;;4995399;28;20234;-51
2022/12/07 10:25:37;;;;;;;6.97;4.93;;;11.80;40.20;;;;;;4995632;28;20202;-51
2022/12/07 10:28:15;;;;;;;9.00;4.45;;;12.00;39.00;;;;;;4995276;28;20297;-51
2022/12/07 10:30:50;;;;;;;7.90;5.43;;;11.70;38.10;;;;;;4995352;28;20582;-52
2022/12/07 10:33:30;;;;;;;9.50;5.90;;;11.10;39.60;;;;;;4995257;28;20183;-51
2022/12/07 10:35:57;;;;;;;18.70;6.03;;;10.60;40.00;;;;;;4995123;28;20530;-51
2022/12/07 10:38:26;;;;;;;8.82;5.18;;;10.30;41.30;;;;;;4995231;28;20672;-53
2022/12/07 10:41:06;;;;;;;7.25;5.03;;;10.10;41.70;;;;;;4995138;28;20203;-51
2022/12/07 10:43:32;;;;;;;10.27;5.75;;;9.80;41.70;;;;;;4994968;28;20171;-51
2022/12/07 10:46:29;;;;;;;5.50;4.20;;;9.40;43.40;;;;;;4994876;28;20561;-51
2022/12/07 10:49:16;;;;;;;6.22;4.70;;;9.30;43.40;;;;;;4994987;28;20511;-51
2022/12/07 10:52:20;;;;;;;7.07;4.57;;;9.20;44.30;;;;;;4994986;28;20260;-51
2022/12/07 10:54:58;;;;;;;10.32;5.22;;;9.30;44.50;;;;;;4975506;28;20726;-51
2022/12/07 10:57:41;;;;;;;8.32;5.95;;;9.30;44.70;;;;;;4994447;28;20265;-51
2022/12/07 11:00:08;;;;;;;8.13;5.32;;;9.20;45.00;;;;;;4994956;28;20210;-51
2022/12/07 11:03:08;;;;;;;11.63;6.22;;;9.20;45.20;;;;;;4994627;28;20186;-52
2022/12/07 11:05:52;;;;;;;6.10;4.75;;;9.20;45.00;;;;;;4994626;28;20205;-52
2022/12/07 11:09:00;;;;;;;6.40;5.05;;;9.50;45.40;;;;;;4994845;28;20210;-51
2022/12/07 11:12:09;;;;;;;9.05;6.63;;;9.00;45.00;;;;;;4994738;28;20177;-52
2022/12/07 11:14:40;;;;;;;7.25;5.32;;;9.10;45.30;;;;;;4993804;28;20258;-51
2022/12/07 11:17:09;;;;;;;9.82;5.70;;;9.10;45.80;;;;;;4993941;28;20195;-51
2022/12/07 11:20:12;;;;;;;7.88;6.15;;;9.10;45.00;;;;;;4994661;28;20241;-51
2022/12/07 11:22:57;;;;;;;8.00;6.20;;;9.20;44.80;;;;;;4994252;28;20171;-52
2022/12/07 11:25:32;;;;;;;9.02;6.28;;;8.90;45.30;;;;;;4994338;28;20252;-51
2022/12/07 11:28:19;;;;;;;9.60;5.90;;;8.90;45.80;;;;;;4994225;28;20239;-51
2022/12/07 11:31:32;;;;;;;12.35;5.55;;;9.00;45.60;;;;;;4994295;28;20208;-51
2022/12/07 11:34:17;;;;;;;8.02;5.55;;;9.10;45.60;;;;;;4977555;28;20183;-52
2022/12/07 11:36:51;;;;;;;6.38;4.65;;;9.10;46.00;;;;;;4994343;28;20202;-52
2022/12/07 11:39:30;;;;;;;6.00;4.97;;;8.90;46.50;;;;;;4994158;28;20280;-51
2022/12/07 11:42:03;;;;;;;8.85;5.38;;;8.80;47.70;;;;;;4994039;28;20657;-51
2022/12/07 11:44:35;;;;;;;6.53;4.50;;;8.50;48.50;;;;;;4994106;28;20161;-51
2022/12/07 11:47:17;;;;;;;7.10;5.10;;;8.40;48.90;;;;;;4993833;28;20207;-52
2022/12/07 11:49:47;;;;;;;15.18;5.70;;;8.50;48.50;;;;;;4993916;28;20176;-52
2022/12/07 11:52:53;;;;;;;7.35;5.53;;;8.60;48.40;;;;;;4993845;28;20177;-52
2022/12/07 11:55:38;;;;;;;12.27;6.15;;;8.70;48.00;;;;;;4982353;28;20332;-53
2022/12/07 11:58:27;;;;;;;8.80;4.65;;;8.80;47.80;;;;;;4993821;28;20159;-51
2022/12/07 12:01:06;;;;;;;9.38;4.78;;;8.90;47.80;;;;;;4990047;28;20683;-52
2022/12/07 12:03:35;;;;;;;20.55;6.72;;;9.00;47.70;;;;;;4993750;28;20260;-53
2022/12/07 12:06:01;;;;;;;8.65;6.47;;;8.90;47.70;;;;;;4993361;28;20222;-52
2022/12/07 12:08:29;;;;;;;9.33;6.40;;;9.00;47.70;;;;;;4993763;28;20175;-53
2022/12/07 12:11:01;;;;;;;9.75;7.05;;;9.00;48.00;;;;;;4993548;28;20167;-53
2022/12/07 12:13:48;;;;;;;10.52;6.97;;;9.00;47.90;;;;;;4993580;28;20604;-52
2022/12/07 12:16:31;;;;;;;11.55;7.70;;;9.10;48.20;;;;;;4993422;28;20195;-52
2022/12/07 12:19:04;;;;;;;8.70;6.30;;;9.20;48.40;;;;;;4993332;28;20171;-53
2022/12/07 12:21:30;;;;;;;9.65;6.82;;;9.30;48.40;;;;;;4993309;28;20262;-53
2022/12/07 12:24:02;;;;;;;13.20;9.13;;;9.30;48.30;;;;;;4993319;28;20225;-53
2022/12/07 12:26:32;;;;;;;11.65;7.38;;;9.40;48.00;;;;;;4992709;28;20573;-53
2022/12/07 12:29:03;;;;;;;11.82;8.20;;;9.40;48.30;;;;;;4993030;28;20652;-52
2022/12/07 12:31:36;;;;;;;14.27;8.98;;;9.40;48.20;;;;;;4993192;28;20188;-53
2022/12/07 12:34:04;;;;;;;9.27;6.32;;;9.40;48.20;;;;;;4992985;28;20182;-53
2022/12/07 12:36:42;;;;;;;9.82;7.38;;;9.40;48.40;;;;;;4992915;28;20231;-53
2022/12/07 12:39:08;;;;;;;12.02;6.75;;;9.40;48.30;;;;;;4993012;28;20583;-53
2022/12/07 12:41:37;;;;;;;8.32;5.65;;;9.40;48.30;;;;;;4993103;28;20188;-52
2022/12/07 12:44:24;;;;;;;7.35;5.13;;;9.40;48.00;;;;;;4992853;28;20272;-53
2022/12/07 12:47:01;;;;;;;10.25;6.60;;;9.30;48.10;;;;;;4981667;28;20264;-53
2022/12/07 12:49:35;;;;;;;6.78;4.43;;;9.30;48.30;;;;;;4993073;28;20196;-52
2022/12/07 12:52:22;;;;;;;6.80;4.60;;;9.20;47.60;;;;;;4992603;28;20170;-52
2022/12/07 12:55:12;;;;;;;6.10;3.90;;;9.10;47.60;;;;;;4992901;28;20162;-52
2022/12/07 12:57:38;;;;;;;5.28;3.00;;;8.90;47.30;;;;;;4992695;28;20729;-52
2022/12/07 13:00:09;;;;;;;6.50;3.22;;;8.70;48.00;;;;;;4992717;28;20183;-53
2022/12/07 13:02:37;;;;;;;4.40;3.10;;;8.80;48.10;;;;;;4992766;28;20565;-52
2022/12/07 13:05:32;;;;;;;3.45;2.22;;;8.90;47.70;;;;;;4992821;28;20273;-53
2022/12/07 13:08:10;;;;;;;1.77;1.63;;;8.50;47.80;;;;;;4992642;28;20241;-53
2022/12/07 13:10:45;;;;;;;2.47;1.33;;;8.10;48.70;;;;;;4992556;28;20178;-53
2022/12/07 13:13:28;;;;;;;6.72;2.08;;;8.20;48.70;;;;;;4992642;28;20198;-52
2022/12/07 13:16:07;;;;;;;1.95;1.50;;;8.20;48.90;;;;;;4992530;28;20530;-53
2022/12/07 13:18:33;;;;;;;1.65;1.35;;;8.00;48.40;;;;;;4992634;28;20170;-52
2022/12/07 13:21:00;;;;;;;2.10;1.43;;;8.00;48.40;;;;;;4992477;28;20515;-52
2022/12/07 13:23:38;;;;;;;3.75;1.67;;;7.90;48.60;;;;;;4992300;28;20206;-52